sensor_id;sensor_type;location;lat;lon;timestamp;P1;durP1;ratioP1;P2;durP2;ratioP2
35326;SDS011;21436;52.348;20.928;2023-11-21T00:00:09;1.08;;;1.08;;
35326;SDS011;21436;52.348;20.928;2023-11-21T00:03:00;0.10;;;0.10;;
35326;SDS011;21436;52.348;20.928;2023-11-21T00:05:29;2.90;;;0.80;;
35326;SDS011;21436;52.348;20.928;2023-11-21T00:07:57;9.18;;;2.83;;
35326;SDS011;21436;52.348;20.928;2023-11-21T00:10:25;0.98;;;0.98;;
35326;SDS011;21436;52.348;20.928;2023-11-21T00:12:54;0.00;;;0.00;;
35326;SDS011;21436;52.348;20.928;2023-11-21T00:15:22;0.90;;;0.90;;
35326;SDS011;21436;52.348;20.928;2023-11-21T00:17:51;1.05;;;1.05;;
35326;SDS011;21436;52.348;20.928;2023-11-21T00:20:19;0.68;;;0.68;;
35326;SDS011;21436;52.348;20.928;2023-11-21T00:22:49;0.00;;;0.00;;
35326;SDS011;21436;52.348;20.928;2023-11-21T00:25:17;0.00;;;0.00;;
35326;SDS011;21436;52.348;20.928;2023-11-21T00:27:46;0.13;;;0.13;;
35326;SDS011;21436;52.348;20.928;2023-11-21T00:30:13;4.85;;;2.30;;
35326;SDS011;21436;52.348;20.928;2023-11-21T00:32:42;1.70;;;1.60;;
35326;SDS011;21436;52.348;20.928;2023-11-21T00:35:11;7.53;;;4.80;;
35326;SDS011;21436;52.348;20.928;2023-11-21T00:37:39;0.00;;;0.00;;
35326;SDS011;21436;52.348;20.928;2023-11-21T00:40:07;11.40;;;5.55;;
35326;SDS011;21436;52.348;20.928;2023-11-21T00:42:36;0.40;;;0.38;;
35326;SDS011;21436;52.348;20.928;2023-11-21T00:45:04;0.57;;;0.57;;
35326;SDS011;21436;52.348;20.928;2023-11-21T00:47:34;0.65;;;0.65;;
35326;SDS011;21436;52.348;20.928;2023-11-21T00:50:02;2.00;;;1.10;;
35326;SDS011;21436;52.348;20.928;2023-11-21T00:52:30;0.00;;;0.00;;
35326;SDS011;21436;52.348;20.928;2023-11-21T00:54:57;0.00;;;0.00;;
35326;SDS011;21436;52.348;20.928;2023-11-21T00:57:27;0.90;;;0.73;;
35326;SDS011;21436;52.348;20.928;2023-11-21T00:59:55;0.00;;;0.00;;
35326;SDS011;21436;52.348;20.928;2023-11-21T01:02:23;0.50;;;0.50;;
35326;SDS011;21436;52.348;20.928;2023-11-21T01:04:53;3.38;;;3.10;;
35326;SDS011;21436;52.348;20.928;2023-11-21T01:07:21;0.47;;;0.47;;
35326;SDS011;21436;52.348;20.928;2023-11-21T01:09:50;0.00;;;0.00;;
35326;SDS011;21436;52.348;20.928;2023-11-21T01:12:18;0.17;;;0.17;;
35326;SDS011;21436;52.348;20.928;2023-11-21T01:14:46;1.48;;;1.38;;
35326;SDS011;21436;52.348;20.928;2023-11-21T01:17:14;0.17;;;0.17;;
35326;SDS011;21436;52.348;20.928;2023-11-21T01:19:42;1.08;;;1.00;;
35326;SDS011;21436;52.348;20.928;2023-11-21T01:22:12;0.32;;;0.32;;
35326;SDS011;21436;52.348;20.928;2023-11-21T01:24:40;0.77;;;0.77;;
35326;SDS011;21436;52.348;20.928;2023-11-21T01:27:08;0.75;;;0.70;;
35326;SDS011;21436;52.348;20.928;2023-11-21T01:29:36;0.00;;;0.00;;
35326;SDS011;21436;52.348;20.928;2023-11-21T01:32:04;0.73;;;0.73;;
35326;SDS011;21436;52.348;20.928;2023-11-21T01:34:35;0.25;;;0.25;;
35326;SDS011;21436;52.348;20.928;2023-11-21T01:37:04;0.45;;;0.45;;
35326;SDS011;21436;52.348;20.928;2023-11-21T01:39:32;0.00;;;0.00;;
35326;SDS011;21436;52.348;20.928;2023-11-21T01:42:00;0.32;;;0.32;;
35326;SDS011;21436;52.348;20.928;2023-11-21T01:44:28;0.43;;;0.38;;
35326;SDS011;21436;52.348;20.928;2023-11-21T01:46:57;1.38;;;1.35;;
35326;SDS011;21436;52.348;20.928;2023-11-21T01:49:25;6.03;;;2.75;;
35326;SDS011;21436;52.348;20.928;2023-11-21T01:51:54;40.75;;;17.65;;
35326;SDS011;21436;52.348;20.928;2023-11-21T01:54:21;46.45;;;19.48;;
35326;SDS011;21436;52.348;20.928;2023-11-21T01:56:49;48.35;;;20.70;;
35326;SDS011;21436;52.348;20.928;2023-11-21T01:59:18;30.92;;;13.45;;
35326;SDS011;21436;52.348;20.928;2023-11-21T02:01:51;42.75;;;18.90;;
35326;SDS011;21436;52.348;20.928;2023-11-21T02:04:19;38.38;;;16.67;;
35326;SDS011;21436;52.348;20.928;2023-11-21T02:06:48;41.80;;;18.15;;
35326;SDS011;21436;52.348;20.928;2023-11-21T02:09:27;37.60;;;16.00;;
35326;SDS011;21436;52.348;20.928;2023-11-21T02:11:56;40.03;;;15.75;;
35326;SDS011;21436;52.348;20.928;2023-11-21T02:14:26;34.65;;;14.65;;
35326;SDS011;21436;52.348;20.928;2023-11-21T02:16:55;24.48;;;10.43;;
35326;SDS011;21436;52.348;20.928;2023-11-21T02:19:28;34.72;;;13.65;;
35326;SDS011;21436;52.348;20.928;2023-11-21T02:21:59;43.05;;;18.17;;
35326;SDS011;21436;52.348;20.928;2023-11-21T02:24:30;35.15;;;15.00;;
35326;SDS011;21436;52.348;20.928;2023-11-21T02:26:59;37.80;;;14.35;;
35326;SDS011;21436;52.348;20.928;2023-11-21T02:29:27;43.42;;;18.02;;
35326;SDS011;21436;52.348;20.928;2023-11-21T02:31:55;46.33;;;20.27;;
35326;SDS011;21436;52.348;20.928;2023-11-21T02:34:24;49.53;;;21.02;;
35326;SDS011;21436;52.348;20.928;2023-11-21T02:36:54;49.88;;;20.17;;
35326;SDS011;21436;52.348;20.928;2023-11-21T02:39:22;47.28;;;20.40;;
35326;SDS011;21436;52.348;20.928;2023-11-21T02:41:52;48.75;;;17.95;;
35326;SDS011;21436;52.348;20.928;2023-11-21T02:44:21;47.63;;;16.65;;
35326;SDS011;21436;52.348;20.928;2023-11-21T02:46:49;54.15;;;21.05;;
35326;SDS011;21436;52.348;20.928;2023-11-21T02:49:18;57.63;;;21.48;;
35326;SDS011;21436;52.348;20.928;2023-11-21T02:51:46;49.80;;;18.65;;
35326;SDS011;21436;52.348;20.928;2023-11-21T02:54:13;51.63;;;21.17;;
35326;SDS011;21436;52.348;20.928;2023-11-21T02:56:44;48.65;;;19.25;;
35326;SDS011;21436;52.348;20.928;2023-11-21T02:59:12;69.90;;;24.35;;
35326;SDS011;21436;52.348;20.928;2023-11-21T03:01:40;59.22;;;22.00;;
35326;SDS011;21436;52.348;20.928;2023-11-21T03:04:08;58.28;;;21.25;;
35326;SDS011;21436;52.348;20.928;2023-11-21T03:06:37;64.45;;;21.83;;
35326;SDS011;21436;52.348;20.928;2023-11-21T03:09:05;56.97;;;19.10;;
35326;SDS011;21436;52.348;20.928;2023-11-21T03:11:34;57.00;;;20.25;;
35326;SDS011;21436;52.348;20.928;2023-11-21T03:14:02;55.15;;;20.17;;
35326;SDS011;21436;52.348;20.928;2023-11-21T03:16:32;59.65;;;21.88;;
35326;SDS011;21436;52.348;20.928;2023-11-21T03:19:00;52.03;;;20.08;;
35326;SDS011;21436;52.348;20.928;2023-11-21T03:21:29;60.38;;;21.08;;
35326;SDS011;21436;52.348;20.928;2023-11-21T03:23:56;67.13;;;23.25;;
35326;SDS011;21436;52.348;20.928;2023-11-21T03:26:26;47.00;;;18.23;;
35326;SDS011;21436;52.348;20.928;2023-11-21T03:28:54;47.42;;;19.33;;
35326;SDS011;21436;52.348;20.928;2023-11-21T03:31:24;43.25;;;18.20;;
35326;SDS011;21436;52.348;20.928;2023-11-21T03:33:52;55.10;;;20.52;;
35326;SDS011;21436;52.348;20.928;2023-11-21T03:36:21;45.30;;;20.30;;
35326;SDS011;21436;52.348;20.928;2023-11-21T03:38:49;43.20;;;17.92;;
35326;SDS011;21436;52.348;20.928;2023-11-21T03:41:17;56.30;;;21.63;;
35326;SDS011;21436;52.348;20.928;2023-11-21T03:43:46;55.72;;;21.17;;
35326;SDS011;21436;52.348;20.928;2023-11-21T03:46:15;55.83;;;18.98;;
35326;SDS011;21436;52.348;20.928;2023-11-21T03:48:43;39.67;;;14.52;;
35326;SDS011;21436;52.348;20.928;2023-11-21T03:51:11;52.50;;;19.42;;
35326;SDS011;21436;52.348;20.928;2023-11-21T03:53:39;36.20;;;14.23;;
35326;SDS011;21436;52.348;20.928;2023-11-21T03:56:10;49.35;;;19.50;;
35326;SDS011;21436;52.348;20.928;2023-11-21T03:58:39;49.63;;;21.05;;
35326;SDS011;21436;52.348;20.928;2023-11-21T04:01:07;52.53;;;20.30;;
35326;SDS011;21436;52.348;20.928;2023-11-21T04:03:35;44.00;;;19.15;;
35326;SDS011;21436;52.348;20.928;2023-11-21T04:06:04;49.13;;;21.02;;
35326;SDS011;21436;52.348;20.928;2023-11-21T04:08:33;43.45;;;16.48;;
35326;SDS011;21436;52.348;20.928;2023-11-21T04:11:01;44.65;;;17.02;;
35326;SDS011;21436;52.348;20.928;2023-11-21T04:13:29;51.65;;;18.83;;
35326;SDS011;21436;52.348;20.928;2023-11-21T04:15:59;37.50;;;15.10;;
35326;SDS011;21436;52.348;20.928;2023-11-21T04:18:30;44.43;;;18.10;;
35326;SDS011;21436;52.348;20.928;2023-11-21T04:20:59;47.38;;;17.80;;
35326;SDS011;21436;52.348;20.928;2023-11-21T04:23:28;47.92;;;18.27;;
35326;SDS011;21436;52.348;20.928;2023-11-21T04:25:58;35.60;;;14.27;;
35326;SDS011;21436;52.348;20.928;2023-11-21T04:28:29;39.03;;;15.88;;
35326;SDS011;21436;52.348;20.928;2023-11-21T04:30:59;35.33;;;14.13;;
35326;SDS011;21436;52.348;20.928;2023-11-21T04:33:27;38.47;;;15.98;;
35326;SDS011;21436;52.348;20.928;2023-11-21T04:35:55;36.15;;;15.18;;
35326;SDS011;21436;52.348;20.928;2023-11-21T04:38:23;38.60;;;16.00;;
35326;SDS011;21436;52.348;20.928;2023-11-21T04:40:51;35.28;;;14.85;;
35326;SDS011;21436;52.348;20.928;2023-11-21T04:43:19;33.13;;;13.70;;
35326;SDS011;21436;52.348;20.928;2023-11-21T04:45:47;40.70;;;15.43;;
35326;SDS011;21436;52.348;20.928;2023-11-21T04:48:15;33.78;;;12.80;;
35326;SDS011;21436;52.348;20.928;2023-11-21T04:50:44;27.98;;;10.65;;
35326;SDS011;21436;52.348;20.928;2023-11-21T04:53:12;29.45;;;10.15;;
35326;SDS011;21436;52.348;20.928;2023-11-21T04:55:42;41.38;;;15.15;;
35326;SDS011;21436;52.348;20.928;2023-11-21T04:58:11;36.65;;;14.48;;
35326;SDS011;21436;52.348;20.928;2023-11-21T05:00:40;35.10;;;14.55;;
35326;SDS011;21436;52.348;20.928;2023-11-21T05:03:09;40.22;;;15.30;;
35326;SDS011;21436;52.348;20.928;2023-11-21T05:05:38;35.35;;;14.45;;
35326;SDS011;21436;52.348;20.928;2023-11-21T05:08:08;29.73;;;12.20;;
35326;SDS011;21436;52.348;20.928;2023-11-21T05:10:36;37.08;;;15.38;;
35326;SDS011;21436;52.348;20.928;2023-11-21T05:13:06;35.78;;;15.95;;
35326;SDS011;21436;52.348;20.928;2023-11-21T05:15:37;26.10;;;11.23;;
35326;SDS011;21436;52.348;20.928;2023-11-21T05:18:06;31.73;;;12.25;;
35326;SDS011;21436;52.348;20.928;2023-11-21T05:20:37;29.25;;;11.30;;
35326;SDS011;21436;52.348;20.928;2023-11-21T05:23:07;33.75;;;13.30;;
35326;SDS011;21436;52.348;20.928;2023-11-21T05:25:36;36.30;;;13.88;;
35326;SDS011;21436;52.348;20.928;2023-11-21T05:28:07;38.80;;;15.10;;
35326;SDS011;21436;52.348;20.928;2023-11-21T05:30:36;39.97;;;14.43;;
35326;SDS011;21436;52.348;20.928;2023-11-21T05:33:03;37.50;;;13.48;;
35326;SDS011;21436;52.348;20.928;2023-11-21T05:35:31;33.35;;;15.20;;
35326;SDS011;21436;52.348;20.928;2023-11-21T05:37:59;36.65;;;16.17;;
35326;SDS011;21436;52.348;20.928;2023-11-21T05:40:27;37.47;;;14.95;;
35326;SDS011;21436;52.348;20.928;2023-11-21T05:42:57;36.20;;;15.52;;
35326;SDS011;21436;52.348;20.928;2023-11-21T05:45:25;27.83;;;12.18;;
35326;SDS011;21436;52.348;20.928;2023-11-21T05:47:53;28.88;;;12.65;;
35326;SDS011;21436;52.348;20.928;2023-11-21T05:50:21;34.38;;;14.65;;
35326;SDS011;21436;52.348;20.928;2023-11-21T05:52:50;36.47;;;14.18;;
35326;SDS011;21436;52.348;20.928;2023-11-21T05:55:18;36.42;;;14.73;;
35326;SDS011;21436;52.348;20.928;2023-11-21T05:57:48;34.08;;;15.02;;
35326;SDS011;21436;52.348;20.928;2023-11-21T06:00:16;33.25;;;14.98;;
35326;SDS011;21436;52.348;20.928;2023-11-21T06:02:52;44.60;;;15.38;;
35326;SDS011;21436;52.348;20.928;2023-11-21T06:05:23;26.42;;;12.23;;
35326;SDS011;21436;52.348;20.928;2023-11-21T06:07:53;35.17;;;12.82;;
35326;SDS011;21436;52.348;20.928;2023-11-21T06:10:23;29.27;;;10.65;;
35326;SDS011;21436;52.348;20.928;2023-11-21T06:12:52;46.05;;;16.25;;
35326;SDS011;21436;52.348;20.928;2023-11-21T06:15:21;38.42;;;14.43;;
35326;SDS011;21436;52.348;20.928;2023-11-21T06:17:52;46.55;;;15.18;;
35326;SDS011;21436;52.348;20.928;2023-11-21T06:20:21;34.42;;;13.75;;
35326;SDS011;21436;52.348;20.928;2023-11-21T06:22:50;43.47;;;16.02;;
35326;SDS011;21436;52.348;20.928;2023-11-21T06:25:19;33.08;;;14.38;;
35326;SDS011;21436;52.348;20.928;2023-11-21T06:27:48;33.22;;;14.38;;
35326;SDS011;21436;52.348;20.928;2023-11-21T06:30:17;31.50;;;12.20;;
35326;SDS011;21436;52.348;20.928;2023-11-21T06:32:47;36.50;;;14.63;;
35326;SDS011;21436;52.348;20.928;2023-11-21T06:35:18;39.53;;;15.05;;
35326;SDS011;21436;52.348;20.928;2023-11-21T06:37:47;39.33;;;13.60;;
35326;SDS011;21436;52.348;20.928;2023-11-21T06:40:17;43.65;;;14.98;;
35326;SDS011;21436;52.348;20.928;2023-11-21T06:42:47;34.85;;;15.70;;
35326;SDS011;21436;52.348;20.928;2023-11-21T06:45:20;47.42;;;16.13;;
35326;SDS011;21436;52.348;20.928;2023-11-21T06:47:49;30.73;;;12.73;;
35326;SDS011;21436;52.348;20.928;2023-11-21T06:50:18;39.03;;;16.25;;
35326;SDS011;21436;52.348;20.928;2023-11-21T06:52:48;34.92;;;15.65;;
35326;SDS011;21436;52.348;20.928;2023-11-21T06:55:17;36.28;;;14.40;;
35326;SDS011;21436;52.348;20.928;2023-11-21T06:57:45;41.22;;;16.42;;
35326;SDS011;21436;52.348;20.928;2023-11-21T07:00:17;36.58;;;13.27;;
35326;SDS011;21436;52.348;20.928;2023-11-21T07:02:46;40.90;;;15.75;;
35326;SDS011;21436;52.348;20.928;2023-11-21T07:05:15;40.60;;;15.57;;
35326;SDS011;21436;52.348;20.928;2023-11-21T07:07:48;43.67;;;15.70;;
35326;SDS011;21436;52.348;20.928;2023-11-21T07:10:17;36.58;;;14.52;;
35326;SDS011;21436;52.348;20.928;2023-11-21T07:12:45;30.10;;;12.80;;
35326;SDS011;21436;52.348;20.928;2023-11-21T07:15:14;42.63;;;15.15;;
35326;SDS011;21436;52.348;20.928;2023-11-21T07:17:42;44.63;;;16.27;;
35326;SDS011;21436;52.348;20.928;2023-11-21T07:20:12;47.63;;;14.40;;
35326;SDS011;21436;52.348;20.928;2023-11-21T07:22:41;35.75;;;14.20;;
35326;SDS011;21436;52.348;20.928;2023-11-21T07:25:10;42.80;;;15.38;;
35326;SDS011;21436;52.348;20.928;2023-11-21T07:27:38;37.88;;;15.70;;
35326;SDS011;21436;52.348;20.928;2023-11-21T07:30:07;31.85;;;13.65;;
35326;SDS011;21436;52.348;20.928;2023-11-21T07:32:37;44.78;;;16.33;;
35326;SDS011;21436;52.348;20.928;2023-11-21T07:35:08;30.45;;;13.50;;
35326;SDS011;21436;52.348;20.928;2023-11-21T07:37:38;37.15;;;14.18;;
35326;SDS011;21436;52.348;20.928;2023-11-21T07:40:09;34.70;;;13.20;;
35326;SDS011;21436;52.348;20.928;2023-11-21T07:42:38;30.95;;;13.70;;
35326;SDS011;21436;52.348;20.928;2023-11-21T07:45:07;33.03;;;13.75;;
35326;SDS011;21436;52.348;20.928;2023-11-21T07:47:36;37.42;;;16.17;;
35326;SDS011;21436;52.348;20.928;2023-11-21T07:50:04;37.65;;;13.90;;
35326;SDS011;21436;52.348;20.928;2023-11-21T07:52:35;41.10;;;16.20;;
35326;SDS011;21436;52.348;20.928;2023-11-21T07:55:04;36.90;;;15.60;;
35326;SDS011;21436;52.348;20.928;2023-11-21T07:57:33;36.17;;;14.13;;
35326;SDS011;21436;52.348;20.928;2023-11-21T08:00:02;41.75;;;16.77;;
35326;SDS011;21436;52.348;20.928;2023-11-21T08:02:39;35.33;;;14.38;;
35326;SDS011;21436;52.348;20.928;2023-11-21T08:05:11;39.70;;;14.38;;
35326;SDS011;21436;52.348;20.928;2023-11-21T08:07:51;36.20;;;16.27;;
35326;SDS011;21436;52.348;20.928;2023-11-21T08:10:19;41.65;;;16.27;;
35326;SDS011;21436;52.348;20.928;2023-11-21T08:12:49;37.35;;;16.60;;
35326;SDS011;21436;52.348;20.928;2023-11-21T08:15:19;42.80;;;18.05;;
35326;SDS011;21436;52.348;20.928;2023-11-21T08:17:48;42.45;;;17.33;;
35326;SDS011;21436;52.348;20.928;2023-11-21T08:20:17;43.17;;;17.40;;
35326;SDS011;21436;52.348;20.928;2023-11-21T08:22:45;39.17;;;14.80;;
35326;SDS011;21436;52.348;20.928;2023-11-21T08:25:15;39.42;;;17.48;;
35326;SDS011;21436;52.348;20.928;2023-11-21T08:27:44;40.33;;;16.75;;
35326;SDS011;21436;52.348;20.928;2023-11-21T08:30:13;34.47;;;12.15;;
35326;SDS011;21436;52.348;20.928;2023-11-21T08:32:41;33.60;;;14.63;;
35326;SDS011;21436;52.348;20.928;2023-11-21T08:35:11;39.35;;;15.27;;
35326;SDS011;21436;52.348;20.928;2023-11-21T08:37:40;39.83;;;16.08;;
35326;SDS011;21436;52.348;20.928;2023-11-21T08:40:08;38.63;;;14.52;;
35326;SDS011;21436;52.348;20.928;2023-11-21T08:42:39;39.85;;;15.95;;
35326;SDS011;21436;52.348;20.928;2023-11-21T08:45:08;40.90;;;17.08;;
35326;SDS011;21436;52.348;20.928;2023-11-21T08:47:36;39.83;;;15.68;;
35326;SDS011;21436;52.348;20.928;2023-11-21T08:50:05;38.22;;;15.00;;
35326;SDS011;21436;52.348;20.928;2023-11-21T08:52:36;39.30;;;16.77;;
35326;SDS011;21436;52.348;20.928;2023-11-21T08:55:05;45.53;;;18.33;;
35326;SDS011;21436;52.348;20.928;2023-11-21T08:57:36;41.95;;;17.15;;
35326;SDS011;21436;52.348;20.928;2023-11-21T09:00:08;39.17;;;15.35;;
35326;SDS011;21436;52.348;20.928;2023-11-21T09:02:39;39.70;;;15.65;;
35326;SDS011;21436;52.348;20.928;2023-11-21T09:05:11;34.50;;;14.77;;
35326;SDS011;21436;52.348;20.928;2023-11-21T09:07:42;35.05;;;15.48;;
35326;SDS011;21436;52.348;20.928;2023-11-21T09:10:10;41.05;;;15.18;;
35326;SDS011;21436;52.348;20.928;2023-11-21T09:12:39;40.10;;;16.95;;
35326;SDS011;21436;52.348;20.928;2023-11-21T09:15:07;41.25;;;17.48;;
35326;SDS011;21436;52.348;20.928;2023-11-21T09:17:37;47.85;;;18.20;;
35326;SDS011;21436;52.348;20.928;2023-11-21T09:20:06;39.97;;;16.63;;
35326;SDS011;21436;52.348;20.928;2023-11-21T09:22:37;36.33;;;15.50;;
35326;SDS011;21436;52.348;20.928;2023-11-21T09:25:06;43.63;;;18.92;;
35326;SDS011;21436;52.348;20.928;2023-11-21T09:27:36;34.15;;;14.68;;
35326;SDS011;21436;52.348;20.928;2023-11-21T09:30:04;41.03;;;17.95;;
35326;SDS011;21436;52.348;20.928;2023-11-21T09:32:33;46.75;;;17.30;;
35326;SDS011;21436;52.348;20.928;2023-11-21T09:35:04;41.90;;;17.58;;
35326;SDS011;21436;52.348;20.928;2023-11-21T09:37:32;42.65;;;18.45;;
35326;SDS011;21436;52.348;20.928;2023-11-21T09:40:01;41.05;;;18.42;;
35326;SDS011;21436;52.348;20.928;2023-11-21T09:42:32;23.05;;;8.35;;
35326;SDS011;21436;52.348;20.928;2023-11-21T09:45:18;41.28;;;17.08;;
35326;SDS011;21436;52.348;20.928;2023-11-21T09:47:53;41.60;;;16.73;;
35326;SDS011;21436;52.348;20.928;2023-11-21T09:50:26;47.65;;;17.55;;
35326;SDS011;21436;52.348;20.928;2023-11-21T09:55:43;39.60;;;17.92;;
35326;SDS011;21436;52.348;20.928;2023-11-21T09:58:13;44.28;;;18.10;;
35326;SDS011;21436;52.348;20.928;2023-11-21T10:00:43;35.72;;;15.38;;
35326;SDS011;21436;52.348;20.928;2023-11-21T10:03:12;42.63;;;17.77;;
35326;SDS011;21436;52.348;20.928;2023-11-21T10:05:44;44.63;;;18.50;;
35326;SDS011;21436;52.348;20.928;2023-11-21T10:08:13;41.78;;;16.10;;
35326;SDS011;21436;52.348;20.928;2023-11-21T10:10:43;44.25;;;18.40;;
35326;SDS011;21436;52.348;20.928;2023-11-21T10:13:17;36.15;;;13.70;;
35326;SDS011;21436;52.348;20.928;2023-11-21T10:15:51;40.08;;;17.90;;
35326;SDS011;21436;52.348;20.928;2023-11-21T10:18:21;44.47;;;18.77;;
35326;SDS011;21436;52.348;20.928;2023-11-21T10:20:53;45.30;;;17.48;;
35326;SDS011;21436;52.348;20.928;2023-11-21T10:23:22;39.85;;;16.58;;
35326;SDS011;21436;52.348;20.928;2023-11-21T10:25:51;46.95;;;18.70;;
35326;SDS011;21436;52.348;20.928;2023-11-21T10:28:21;41.10;;;18.70;;
35326;SDS011;21436;52.348;20.928;2023-11-21T10:30:50;43.20;;;18.98;;
35326;SDS011;21436;52.348;20.928;2023-11-21T10:33:18;43.33;;;19.15;;
35326;SDS011;21436;52.348;20.928;2023-11-21T10:35:56;35.95;;;14.48;;
35326;SDS011;21436;52.348;20.928;2023-11-21T10:38:24;39.03;;;17.20;;
35326;SDS011;21436;52.348;20.928;2023-11-21T10:40:55;36.13;;;14.93;;
35326;SDS011;21436;52.348;20.928;2023-11-21T10:43:26;40.53;;;17.05;;
35326;SDS011;21436;52.348;20.928;2023-11-21T10:45:57;35.63;;;13.40;;
35326;SDS011;21436;52.348;20.928;2023-11-21T10:48:27;30.48;;;13.38;;
35326;SDS011;21436;52.348;20.928;2023-11-21T10:50:56;47.60;;;18.42;;
35326;SDS011;21436;52.348;20.928;2023-11-21T10:53:24;37.95;;;17.83;;
35326;SDS011;21436;52.348;20.928;2023-11-21T10:56:01;37.30;;;16.17;;
35326;SDS011;21436;52.348;20.928;2023-11-21T10:58:30;38.80;;;15.55;;
35326;SDS011;21436;52.348;20.928;2023-11-21T11:01:00;38.58;;;17.70;;
35326;SDS011;21436;52.348;20.928;2023-11-21T11:03:31;43.67;;;18.65;;
35326;SDS011;21436;52.348;20.928;2023-11-21T11:06:02;45.05;;;18.55;;
35326;SDS011;21436;52.348;20.928;2023-11-21T11:08:31;23.33;;;11.55;;
35326;SDS011;21436;52.348;20.928;2023-11-21T11:10:59;46.65;;;17.48;;
35326;SDS011;21436;52.348;20.928;2023-11-21T11:13:28;32.30;;;13.77;;
35326;SDS011;21436;52.348;20.928;2023-11-21T11:15:59;41.03;;;17.73;;
35326;SDS011;21436;52.348;20.928;2023-11-21T11:18:29;37.53;;;17.00;;
35326;SDS011;21436;52.348;20.928;2023-11-21T11:21:06;42.30;;;19.80;;
35326;SDS011;21436;52.348;20.928;2023-11-21T11:26:35;39.97;;;17.77;;
35326;SDS011;21436;52.348;20.928;2023-11-21T11:32:35;28.60;;;11.85;;
35326;SDS011;21436;52.348;20.928;2023-11-21T11:35:11;35.05;;;15.90;;
35326;SDS011;21436;52.348;20.928;2023-11-21T11:37:45;34.20;;;16.00;;
35326;SDS011;21436;52.348;20.928;2023-11-21T11:40:13;48.28;;;17.63;;
35326;SDS011;21436;52.348;20.928;2023-11-21T11:42:58;41.03;;;17.95;;
35326;SDS011;21436;52.348;20.928;2023-11-21T11:45:32;37.65;;;17.52;;
35326;SDS011;21436;52.348;20.928;2023-11-21T11:48:01;38.03;;;17.55;;
35326;SDS011;21436;52.348;20.928;2023-11-21T11:50:31;48.45;;;18.95;;
35326;SDS011;21436;52.348;20.928;2023-11-21T11:53:15;47.97;;;19.25;;
35326;SDS011;21436;52.348;20.928;2023-11-21T11:55:43;32.65;;;15.23;;
35326;SDS011;21436;52.348;20.928;2023-11-21T11:58:11;43.30;;;18.70;;
35326;SDS011;21436;52.348;20.928;2023-11-21T12:00:40;39.65;;;18.17;;
35326;SDS011;21436;52.348;20.928;2023-11-21T12:03:11;41.25;;;18.10;;
35326;SDS011;21436;52.348;20.928;2023-11-21T12:05:41;36.50;;;16.58;;
35326;SDS011;21436;52.348;20.928;2023-11-21T12:08:13;42.63;;;18.35;;
35326;SDS011;21436;52.348;20.928;2023-11-21T12:10:43;35.45;;;15.65;;
35326;SDS011;21436;52.348;20.928;2023-11-21T12:13:12;47.25;;;19.70;;
35326;SDS011;21436;52.348;20.928;2023-11-21T12:15:40;33.50;;;16.73;;
35326;SDS011;21436;52.348;20.928;2023-11-21T12:18:10;35.75;;;15.05;;
35326;SDS011;21436;52.348;20.928;2023-11-21T12:20:38;41.35;;;18.02;;
35326;SDS011;21436;52.348;20.928;2023-11-21T12:23:08;42.70;;;18.70;;
35326;SDS011;21436;52.348;20.928;2023-11-21T12:25:37;46.97;;;18.92;;
35326;SDS011;21436;52.348;20.928;2023-11-21T12:28:10;40.30;;;17.45;;
35326;SDS011;21436;52.348;20.928;2023-11-21T12:30:40;37.03;;;15.68;;
35326;SDS011;21436;52.348;20.928;2023-11-21T12:33:09;39.55;;;18.75;;
35326;SDS011;21436;52.348;20.928;2023-11-21T12:35:38;37.83;;;14.98;;
35326;SDS011;21436;52.348;20.928;2023-11-21T12:38:07;25.55;;;11.00;;
35326;SDS011;21436;52.348;20.928;2023-11-21T12:40:38;37.25;;;12.88;;
35326;SDS011;21436;52.348;20.928;2023-11-21T12:43:08;33.20;;;14.27;;
35326;SDS011;21436;52.348;20.928;2023-11-21T12:45:37;28.77;;;11.30;;
35326;SDS011;21436;52.348;20.928;2023-11-21T12:48:07;37.10;;;15.80;;
35326;SDS011;21436;52.348;20.928;2023-11-21T12:50:37;38.13;;;16.92;;
35326;SDS011;21436;52.348;20.928;2023-11-21T12:53:08;41.08;;;16.85;;
35326;SDS011;21436;52.348;20.928;2023-11-21T12:55:38;42.13;;;17.77;;
35326;SDS011;21436;52.348;20.928;2023-11-21T12:58:08;34.95;;;14.18;;
35326;SDS011;21436;52.348;20.928;2023-11-21T13:00:39;37.70;;;18.08;;
35326;SDS011;21436;52.348;20.928;2023-11-21T13:03:11;42.85;;;18.98;;
35326;SDS011;21436;52.348;20.928;2023-11-21T13:05:43;38.60;;;17.17;;
35326;SDS011;21436;52.348;20.928;2023-11-21T13:08:15;36.40;;;17.27;;
35326;SDS011;21436;52.348;20.928;2023-11-21T13:10:51;40.78;;;17.15;;
35326;SDS011;21436;52.348;20.928;2023-11-21T13:13:24;31.42;;;14.80;;
35326;SDS011;21436;52.348;20.928;2023-11-21T13:15:53;39.10;;;16.33;;
35326;SDS011;21436;52.348;20.928;2023-11-21T13:18:26;30.85;;;14.55;;
35326;SDS011;21436;52.348;20.928;2023-11-21T13:20:55;39.90;;;17.20;;
35326;SDS011;21436;52.348;20.928;2023-11-21T13:23:26;43.13;;;17.98;;
35326;SDS011;21436;52.348;20.928;2023-11-21T13:25:54;38.80;;;17.48;;
35326;SDS011;21436;52.348;20.928;2023-11-21T13:28:33;41.17;;;18.40;;
35326;SDS011;21436;52.348;20.928;2023-11-21T13:31:03;37.13;;;17.33;;
35326;SDS011;21436;52.348;20.928;2023-11-21T13:33:49;42.50;;;19.05;;
35326;SDS011;21436;52.348;20.928;2023-11-21T13:36:24;43.40;;;18.10;;
35326;SDS011;21436;52.348;20.928;2023-11-21T13:38:53;40.33;;;18.42;;
35326;SDS011;21436;52.348;20.928;2023-11-21T13:41:21;54.63;;;19.98;;
35326;SDS011;21436;52.348;20.928;2023-11-21T13:43:59;48.63;;;17.90;;
35326;SDS011;21436;52.348;20.928;2023-11-21T13:46:54;34.92;;;16.02;;
35326;SDS011;21436;52.348;20.928;2023-11-21T13:49:25;44.03;;;19.52;;
35326;SDS011;21436;52.348;20.928;2023-11-21T13:51:54;40.50;;;18.90;;
35326;SDS011;21436;52.348;20.928;2023-11-21T13:54:23;45.50;;;18.63;;
35326;SDS011;21436;52.348;20.928;2023-11-21T13:56:52;50.10;;;19.23;;
35326;SDS011;21436;52.348;20.928;2023-11-21T13:59:23;47.45;;;19.00;;
35326;SDS011;21436;52.348;20.928;2023-11-21T14:01:53;45.20;;;19.70;;
35326;SDS011;21436;52.348;20.928;2023-11-21T14:04:28;47.03;;;21.30;;
35326;SDS011;21436;52.348;20.928;2023-11-21T14:07:17;40.90;;;17.45;;
35326;SDS011;21436;52.348;20.928;2023-11-21T14:09:54;46.03;;;19.95;;
35326;SDS011;21436;52.348;20.928;2023-11-21T14:12:22;43.45;;;21.23;;
35326;SDS011;21436;52.348;20.928;2023-11-21T14:14:50;51.83;;;22.17;;
35326;SDS011;21436;52.348;20.928;2023-11-21T14:17:18;51.78;;;22.25;;
35326;SDS011;21436;52.348;20.928;2023-11-21T14:19:46;47.67;;;21.20;;
35326;SDS011;21436;52.348;20.928;2023-11-21T14:22:14;55.08;;;20.77;;
35326;SDS011;21436;52.348;20.928;2023-11-21T14:24:44;51.70;;;22.88;;
35326;SDS011;21436;52.348;20.928;2023-11-21T14:27:14;62.90;;;23.35;;
35326;SDS011;21436;52.348;20.928;2023-11-21T14:29:45;47.05;;;21.73;;
35326;SDS011;21436;52.348;20.928;2023-11-21T14:32:14;50.53;;;21.25;;
35326;SDS011;21436;52.348;20.928;2023-11-21T14:34:44;48.92;;;20.90;;